Time;durP1;ratioP1;P1;durP2;ratioP2;P2;SDS_P1;SDS_P2;PMS_P1;PMS_P2;Temp;Humidity;BMP_temperature;BMP_pressure;BME280_temperature;BME280_humidity;BME280_pressure;Samples;Min_cycle;Max_cycle;Signal;HPM_P1;HPM_P2
2023/04/12 00:02:21;;;;;;;21.92;6.47;;;;;;;1.62;100.00;100462.31;5040742;28;20033;-75
2023/04/12 00:04:54;;;;;;;22.80;7.70;;;;;;;1.58;100.00;100466.09;5021220;28;20041;-75
2023/04/12 00:07:23;;;;;;;31.48;7.53;;;;;;;1.47;100.00;100447.63;5040950;28;20492;-75
2023/04/12 00:09:49;;;;;;;22.02;7.68;;;;;;;1.53;100.00;100451.63;5019569;28;20030;-75
2023/04/12 00:12:16;;;;;;;22.67;8.02;;;;;;;1.48;100.00;100465.09;5036053;28;20084;-75
2023/04/12 00:14:42;;;;;;;33.00;11.48;;;;;;;1.56;100.00;100457.47;5023460;28;20037;-75
2023/04/12 00:17:07;;;;;;;27.73;8.38;;;;;;;1.71;100.00;100465.19;5001456;28;20064;-75
2023/04/12 00:19:33;;;;;;;27.40;8.90;;;;;;;1.71;100.00;100470.47;5020009;28;20021;-75
2023/04/12 00:21:58;;;;;;;33.70;10.73;;;;;;;1.76;100.00;100465.72;5019776;28;20535;-74
2023/04/12 00:24:24;;;;;;;32.00;10.50;;;;;;;1.89;100.00;100466.47;5020673;28;20689;-75
2023/04/12 00:26:49;;;;;;;38.47;10.70;;;;;;;1.95;100.00;100463.41;5035121;28;20451;-74
2023/04/12 00:29:15;;;;;;;34.07;12.43;;;;;;;2.01;100.00;100478.72;5020826;28;20359;-74
2023/04/12 00:31:40;;;;;;;43.03;10.75;;;;;;;1.95;100.00;100468.66;5018432;28;20275;-74
2023/04/12 00:34:05;;;;;;;47.10;12.40;;;;;;;2.01;100.00;100475.25;5021454;28;20095;-74
2023/04/12 00:36:31;;;;;;;30.50;10.98;;;;;;;2.01;100.00;100467.38;5033267;28;20037;-75
2023/04/12 00:38:56;;;;;;;39.23;12.30;;;;;;;2.02;100.00;100472.53;5018986;28;20049;-75
2023/04/12 00:41:23;;;;;;;44.05;12.30;;;;;;;2.00;100.00;100470.97;5037862;28;20039;-74
2023/04/12 00:43:49;;;;;;;34.85;12.50;;;;;;;2.01;100.00;100457.66;5014307;28;20124;-75
2023/04/12 00:46:16;;;;;;;31.83;12.20;;;;;;;2.01;100.00;100451.56;5036069;28;20069;-77
2023/04/12 00:48:43;;;;;;;38.60;12.55;;;;;;;2.13;100.00;100463.84;5027666;28;20045;-74
2023/04/12 00:51:12;;;;;;;36.20;13.15;;;;;;;2.18;100.00;100453.78;5027493;28;20053;-77
2023/04/12 00:53:41;;;;;;;53.55;15.73;;;;;;;2.19;100.00;100454.63;5026818;28;20096;-77
2023/04/12 00:56:10;;;;;;;40.30;14.23;;;;;;;2.24;100.00;100455.94;5016242;28;20479;-74
2023/04/12 00:58:35;;;;;;;47.75;14.65;;;;;;;2.21;100.00;100452.72;5009873;28;20021;-74
2023/04/12 01:01:01;;;;;;;46.00;12.30;;;;;;;2.17;100.00;100440.72;5011334;28;20435;-74
2023/04/12 01:03:29;;;;;;;35.83;13.20;;;;;;;2.27;100.00;100445.19;4992168;28;20304;-75
2023/04/12 01:06:04;;;;;;;30.02;11.38;;;;;;;2.25;100.00;100438.38;5014805;28;20134;-74
2023/04/12 01:08:52;;;;;;;32.28;11.40;;;;;;;2.28;100.00;100444.22;5029497;28;20148;-74
2023/04/12 01:11:44;;;;;;;35.85;11.38;;;;;;;2.23;100.00;100432.38;5034214;28;20065;-77
2023/04/12 01:14:31;;;;;;;45.22;13.40;;;;;;;2.26;100.00;100432.13;5038690;28;20487;-75
2023/04/12 01:17:02;;;;;;;30.10;11.27;;;;;;;2.28;100.00;100438.94;5019633;28;20034;-74
2023/04/12 01:19:52;;;;;;;28.75;11.77;;;;;;;2.36;100.00;100440.16;5037798;28;20067;-74
2023/04/12 01:22:24;;;;;;;49.25;12.95;;;;;;;2.33;100.00;100441.25;5021635;28;20037;-74
2023/04/12 01:25:08;;;;;;;27.35;11.60;;;;;;;2.27;100.00;100426.75;5040178;28;20030;-74
2023/04/12 01:27:43;;;;;;;38.03;12.10;;;;;;;2.21;100.00;100415.84;5025499;28;20034;-76
2023/04/12 01:30:12;;;;;;;43.95;13.10;;;;;;;2.23;100.00;100416.56;4999613;28;20037;-75
2023/04/12 01:32:39;;;;;;;41.88;14.90;;;;;;;2.15;100.00;100405.75;5021273;28;20040;-74
2023/04/12 01:35:07;;;;;;;41.47;13.68;;;;;;;2.12;100.00;100406.84;5025120;28;20029;-75
2023/04/12 01:37:34;;;;;;;40.85;13.15;;;;;;;2.02;100.00;100387.44;5043800;28;20137;-74
2023/04/12 01:40:00;;;;;;;36.20;14.68;;;;;;;2.07;100.00;100395.81;5024568;28;20411;-74
2023/04/12 01:42:25;;;;;;;;;;;;;;;2.09;100.00;100392.09;5014408;28;20022;-74
2023/04/12 01:44:51;;;;;;;42.92;13.65;;;;;;;2.15;100.00;100382.88;5030938;28;20479;-74
2023/04/12 01:47:16;;;;;;;39.87;15.33;;;;;;;2.03;100.00;100383.81;5026049;28;20109;-76
2023/04/12 01:49:53;;;;;;;39.33;16.48;;;;;;;2.03;100.00;100371.50;5040185;28;20517;-74
2023/04/12 01:52:22;;;;;;;38.65;16.05;;;;;;;2.13;100.00;100382.19;5003349;28;20045;-76
2023/04/12 01:54:53;;;;;;;39.50;15.15;;;;;;;2.01;100.00;100368.13;5014826;28;20034;-74
2023/04/12 01:57:20;;;;;;;46.78;16.75;;;;;;;2.03;100.00;100368.88;5021462;28;20756;-77
2023/04/12 01:59:47;;;;;;;44.05;15.88;;;;;;;1.96;100.00;100358.91;5015967;28;20029;-74
2023/04/12 02:02:13;;;;;;;40.08;15.45;;;;;;;1.94;100.00;100356.38;5043155;28;20235;-74
2023/04/12 02:04:40;;;;;;;38.70;14.70;;;;;;;1.95;100.00;100363.34;4994805;28;20125;-75
2023/04/12 02:07:06;;;;;;;34.90;16.20;;;;;;;1.93;100.00;100354.72;5035089;28;20088;-74
2023/04/12 02:09:38;;;;;;;52.33;18.42;;;;;;;1.86;100.00;100345.63;5036967;28;20512;-74
2023/04/12 02:12:08;;;;;;;39.78;16.55;;;;;;;1.89;100.00;100350.66;5023529;28;20151;-74
2023/04/12 02:14:35;;;;;;;40.03;17.38;;;;;;;1.84;100.00;100339.63;5042898;28;20088;-75
2023/04/12 02:17:01;;;;;;;;;;;;;;;1.87;100.00;100334.13;5016058;28;20140;-74
2023/04/12 02:19:27;;;;;;;40.97;14.38;;;;;;;1.86;100.00;100338.56;5023175;28;19917;-75
2023/04/12 02:21:52;;;;;;;49.83;16.30;;;;;;;1.80;100.00;100327.66;4990303;28;20107;-76
2023/04/12 02:24:18;;;;;;;46.90;17.40;;;;;;;1.83;100.00;100332.69;5023079;28;20543;-74
2023/04/12 02:26:43;;;;;;;37.37;14.27;;;;;;;1.83;100.00;100327.44;5022987;28;20078;-77
2023/04/12 02:29:09;;;;;;;39.22;16.00;;;;;;;1.90;100.00;100332.09;5001283;28;20414;-77
2023/04/12 02:31:37;;;;;;;41.00;15.52;;;;;;;1.93;100.00;100328.41;5008446;28;20030;-74
2023/04/12 02:34:04;;;;;;;42.97;15.27;;;;;;;1.99;100.00;100322.69;5001499;28;20037;-76
2023/04/12 02:36:30;;;;;;;;;;;;;;;2.10;100.00;100314.75;5007562;28;20148;-74
2023/04/12 02:38:56;;;;;;;37.55;15.15;;;;;;;2.05;100.00;100316.91;5026850;28;20040;-74
2023/04/12 02:41:22;;;;;;;65.55;15.85;;;;;;;2.09;100.00;100307.84;5014476;28;20017;-75
2023/04/12 02:43:48;;;;;;;30.30;12.82;;;;;;;2.17;100.00;100306.41;5014884;28;20120;-76
2023/04/12 02:46:26;;;;;;;30.73;12.23;;;;;;;2.33;100.00;100301.63;5017818;28;20149;-76
2023/04/12 02:48:55;;;;;;;28.83;12.30;;;;;;;2.32;100.00;100292.88;5001907;28;20043;-74
2023/04/12 02:51:28;;;;;;;24.38;11.73;;;;;;;2.36;100.00;100287.34;5024091;28;20022;-75
2023/04/12 02:53:53;;;;;;;27.33;12.52;;;;;;;2.44;100.00;100291.06;5024192;28;20038;-76
2023/04/12 02:56:23;;;;;;;31.73;11.15;;;;;;;2.44;100.00;100280.53;5021773;28;20034;-75
2023/04/12 02:58:53;;;;;;;28.73;11.30;;;;;;;2.43;100.00;100262.19;5038570;28;20034;-77
2023/04/12 03:01:34;;;;;;;21.05;10.35;;;;;;;2.53;100.00;100264.00;5027821;28;20038;-74
2023/04/12 03:04:18;;;;;;;25.55;9.35;;;;;;;2.53;100.00;100253.44;5016624;28;20072;-76
2023/04/12 03:06:54;;;;;;;32.63;8.77;;;;;;;2.54;100.00;100249.84;5023732;28;20105;-74
2023/04/12 03:09:31;;;;;;;24.75;10.00;;;;;;;2.51;100.00;100236.09;5030637;28;20091;-74
2023/04/12 03:11:56;;;;;;;21.88;9.65;;;;;;;2.50;100.00;100235.22;5025028;28;20025;-75
2023/04/12 03:14:22;;;;;;;21.13;10.10;;;;;;;2.60;100.00;100238.00;5024013;28;20194;-76
2023/04/12 03:16:50;;;;;;;16.80;7.68;;;;;;;2.62;100.00;100224.66;5038975;28;20034;-75
2023/04/12 03:19:17;;;;;;;37.90;8.57;;;;;;;2.69;100.00;100223.22;5019025;28;20027;-74
2023/04/12 03:21:49;;;;;;;20.20;8.07;;;;;;;2.69;100.00;100204.75;5019788;28;20511;-74
2023/04/12 03:24:15;;;;;;;22.80;7.97;;;;;;;2.69;100.00;100194.22;5024834;28;20022;-74
2023/04/12 03:26:42;;;;;;;19.40;6.95;;;;;;;2.66;100.00;100187.41;5022335;28;20038;-76
2023/04/12 03:29:12;;;;;;;17.65;8.80;;;;;;;2.63;100.00;100185.00;5022294;28;20030;-74
2023/04/12 03:31:39;;;;;;;21.70;7.85;;;;;;;2.67;100.00;100177.69;5019560;28;20027;-76
2023/04/12 03:34:07;;;;;;;15.05;7.20;;;;;;;2.74;100.00;100184.16;5022439;28;20097;-74
2023/04/12 03:36:34;;;;;;;20.73;7.72;;;;;;;2.72;100.00;100179.00;5006102;28;20024;-76
2023/04/12 03:39:09;;;;;;;21.10;9.57;;;;;;;2.71;100.00;100165.94;5022492;28;20030;-76
2023/04/12 03:41:36;;;;;;;21.90;7.63;;;;;;;2.72;100.00;100157.06;5024510;28;20054;-74
2023/04/12 03:44:03;;;;;;;19.45;7.00;;;;;;;2.58;100.00;100155.56;5039229;28;20769;-74
2023/04/12 03:46:30;;;;;;;15.82;6.50;;;;;;;2.64;100.00;100157.69;5033152;28;20036;-75
2023/04/12 03:48:59;;;;;;;18.55;7.82;;;;;;;2.68;100.00;100156.47;5023439;28;20103;-74
2023/04/12 03:51:25;;;;;;;15.88;6.55;;;;;;;2.71;100.00;100156.22;5031337;28;20515;-74
2023/04/12 03:53:54;;;;;;;18.08;5.97;;;;;;;2.71;100.00;100139.56;5035948;28;20045;-74
2023/04/12 03:56:20;;;;;;;13.50;6.32;;;;;;;2.73;100.00;100143.75;5045712;28;20021;-75
2023/04/12 03:58:48;;;;;;;22.52;6.60;;;;;;;2.70;100.00;100136.09;5036922;28;20037;-76
2023/04/12 04:01:17;;;;;;;20.45;6.43;;;;;;;2.72;100.00;100128.91;5016625;28;20030;-74
2023/04/12 04:03:44;;;;;;;19.40;5.85;;;;;;;2.72;100.00;100125.44;5014045;28;20117;-74
2023/04/12 04:06:18;;;;;;;13.90;5.15;;;;;;;2.71;100.00;100113.22;5025844;28;20167;-74
2023/04/12 04:08:43;;;;;;;15.85;5.55;;;;;;;2.78;100.00;100111.72;5025794;28;20026;-77
2023/04/12 04:11:11;;;;;;;21.02;6.53;;;;;;;2.74;100.00;100091.88;5021282;28;20382;-74
2023/04/12 04:13:39;;;;;;;14.40;5.43;;;;;;;2.66;100.00;100073.22;5034506;28;20042;-74
2023/04/12 04:16:09;;;;;;;20.27;6.10;;;;;;;2.76;100.00;100068.84;5009903;28;20048;-75
2023/04/12 04:18:34;;;;;;;12.70;5.47;;;;;;;2.74;100.00;100058.44;5031629;28;20062;-74
2023/04/12 04:21:00;;;;;;;;;;;;;;;2.78;100.00;100061.66;5029514;28;20029;-74
2023/04/12 04:23:37;;;;;;;14.57;4.50;;;;;;;2.67;100.00;100045.88;5039874;28;20643;-73
2023/04/12 04:26:08;;;;;;;15.43;5.03;;;;;;;2.62;100.00;100040.19;5026222;28;20033;-73
2023/04/12 04:28:36;;;;;;;17.05;5.38;;;;;;;2.63;100.00;100041.88;5027793;28;20090;-73
2023/04/12 04:31:05;;;;;;;11.68;5.05;;;;;;;2.61;100.00;100033.25;5040809;28;20034;-73
2023/04/12 04:33:32;;;;;;;21.50;6.53;;;;;;;2.60;100.00;100019.25;5024194;28;20490;-73
2023/04/12 04:36:00;;;;;;;14.52;5.05;;;;;;;2.62;100.00;100013.81;5026523;28;20112;-74
2023/04/12 04:38:27;;;;;;;10.52;5.18;;;;;;;2.60;100.00;100013.09;5015584;28;20511;-73
2023/04/12 04:41:01;;;;;;;15.90;5.28;;;;;;;2.67;100.00;100006.34;5015573;28;20030;-74
2023/04/12 04:43:39;;;;;;;12.82;4.90;;;;;;;2.73;100.00;99997.94;5031975;28;20038;-75
2023/04/12 04:46:05;;;;;;;;;;;;;;;2.87;100.00;99996.75;5012725;28;20038;-73
2023/04/12 04:48:30;;;;;;;13.60;5.03;;;;;;;2.87;100.00;99984.41;5026353;28;20421;-73
2023/04/12 04:50:56;;;;;;;10.15;4.03;;;;;;;2.91;100.00;99977.91;5041990;28;20386;-74
2023/04/12 04:53:21;;;;;;;10.57;3.45;;;;;;;2.96;100.00;99973.06;4993454;28;20407;-74
2023/04/12 04:55:47;;;;;;;10.90;3.47;;;;;;;3.01;100.00;99966.56;5011947;28;20120;-75
2023/04/12 04:58:15;;;;;;;7.53;4.00;;;;;;;3.04;100.00;99966.31;5035001;28;20044;-76
2023/04/12 05:00:43;;;;;;;12.63;3.72;;;;;;;3.02;100.00;99942.72;5007364;28;20026;-74
2023/04/12 05:03:10;;;;;;;17.02;4.32;;;;;;;3.10;100.00;99944.69;5018067;28;20029;-73
2023/04/12 05:05:37;;;;;;;10.05;4.35;;;;;;;3.19;100.00;99937.78;5025562;28;20562;-73
2023/04/12 05:08:07;;;;;;;16.38;3.53;;;;;;;3.25;100.00;99926.66;5028780;28;20410;-72
2023/04/12 05:10:34;;;;;;;8.63;3.05;;;;;;;3.32;100.00;99912.78;5044975;28;20083;-74
2023/04/12 05:13:01;;;;;;;10.68;3.20;;;;;;;3.37;100.00;99915.00;5036063;28;20026;-73
2023/04/12 05:15:30;;;;;;;6.85;2.90;;;;;;;3.45;100.00;99906.44;5028126;28;20468;-73
2023/04/12 05:17:55;;;;;;;7.93;2.13;;;;;;;3.59;100.00;99887.56;5026882;28;20038;-73
2023/04/12 05:20:20;;;;;;;6.43;2.37;;;;;;;3.80;100.00;99874.22;5025496;28;20040;-74
2023/04/12 05:22:46;;;;;;;11.65;3.05;;;;;;;3.86;100.00;99852.50;5025302;28;20030;-73
2023/04/12 05:25:12;;;;;;;8.38;2.17;;;;;;;3.93;100.00;99826.38;5024232;28;20037;-74
2023/04/12 05:27:50;;;;;;;4.85;2.22;;;;;;;3.93;100.00;99808.75;5031675;28;20034;-73
2023/04/12 05:30:16;;;;;;;8.10;2.35;;;;;;;3.95;100.00;99793.56;5032392;28;20076;-73
2023/04/12 05:32:42;;;;;;;7.32;2.95;;;;;;;3.97;100.00;99788.16;5026791;28;20377;-74
2023/04/12 05:35:08;;;;;;;9.10;2.53;;;;;;;3.96;100.00;99770.66;5025047;28;20041;-75
2023/04/12 05:37:36;;;;;;;8.00;3.05;;;;;;;4.00;100.00;99749.09;5008562;28;20029;-73
2023/04/12 05:40:05;;;;;;;6.47;2.30;;;;;;;4.03;100.00;99740.03;5007798;28;20475;-77
2023/04/12 05:42:30;;;;;;;6.63;2.10;;;;;;;3.99;100.00;99728.09;5024203;28;20293;-74
2023/04/12 05:44:57;;;;;;;5.60;3.40;;;;;;;3.94;100.00;99706.56;5026770;28;20454;-73
2023/04/12 05:47:23;;;;;;;8.48;2.58;;;;;;;3.98;100.00;99708.78;5028243;28;20049;-75
2023/04/12 05:49:49;;;;;;;12.23;2.90;;;;;;;4.07;100.00;99707.06;5044333;28;20649;-73
2023/04/12 05:52:15;;;;;;;10.93;2.72;;;;;;;4.16;100.00;99690.31;5028532;28;20418;-74
2023/04/12 05:54:41;;;;;;;8.23;2.45;;;;;;;4.76;100.00;99710.97;5028332;28;20037;-74
2023/04/12 05:57:11;;;;;;;4.60;2.20;;;;;;;4.97;100.00;99655.13;5025511;28;20376;-73
2023/04/12 05:59:37;;;;;;;9.82;2.53;;;;;;;5.80;100.00;99617.56;5040370;28;20029;-73
2023/04/12 06:02:02;;;;;;;13.75;4.60;;;;;;;5.82;100.00;99509.66;5011582;28;20037;-75
2023/04/12 06:04:30;;;;;;;5.78;2.38;;;;;;;5.41;100.00;99403.66;5011711;28;20041;-73
2023/04/12 06:06:56;;;;;;;5.53;2.08;;;;;;;5.35;100.00;99369.06;5001345;28;20038;-74
2023/04/12 06:09:22;;;;;;;9.88;3.10;;;;;;;5.93;100.00;99410.50;5024857;28;20048;-76
2023/04/12 06:11:47;;;;;;;6.72;2.78;;;;;;;5.89;100.00;99319.94;5024321;28;20041;-72
2023/04/12 06:14:12;;;;;;;6.63;2.33;;;;;;;6.17;100.00;99274.53;5009445;28;20707;-74
2023/04/12 06:16:38;;;;;;;12.10;3.27;;;;;;;6.18;100.00;99207.31;5008409;28;20491;-73
2023/04/12 06:19:04;;;;;;;6.47;2.17;;;;;;;6.65;100.00;99177.25;5040355;28;20119;-75
2023/04/12 06:21:29;;;;;;;11.80;3.53;;;;;;;6.65;100.00;99004.88;5024322;28;20067;-73
2023/04/12 06:23:55;;;;;;;7.90;2.83;;;;;;;7.14;100.00;99048.66;5024150;28;20037;-73
2023/04/12 06:26:20;;;;;;;8.37;2.10;;;;;;;6.50;100.00;98818.41;5007902;28;20092;-74
2023/04/12 06:28:46;;;;;;;8.18;1.88;;;;;;;6.67;100.00;98872.06;5023105;28;20030;-76
2023/04/12 06:31:12;;;;;;;6.72;2.70;;;;;;;6.94;100.00;98881.22;5006036;28;20041;-75
2023/04/12 06:33:39;;;;;;;10.63;1.92;;;;;;;6.88;100.00;98845.66;5005881;28;20495;-76
2023/04/12 06:36:07;;;;;;;4.78;2.63;;;;;;;7.07;100.00;98771.75;5006158;28;20030;-74
2023/04/12 06:38:33;;;;;;;7.93;1.73;;;;;;;6.84;100.00;98766.63;5005607;28;20017;-72
2023/04/12 06:40:59;;;;;;;8.07;1.63;;;;;;;6.95;100.00;98689.19;5008063;28;20033;-72
2023/04/12 06:43:24;;;;;;;6.97;1.67;;;;;;;7.27;100.00;98772.78;5012989;28;20229;-76
2023/04/12 06:45:49;;;;;;;6.90;2.10;;;;;;;7.56;100.00;98701.97;5030029;28;20040;-76
2023/04/12 06:48:15;;;;;;;7.20;1.60;;;;;;;7.98;100.00;98711.66;5006062;28;20483;-72
2023/04/12 06:50:40;;;;;;;14.13;2.80;;;;;;;7.83;100.00;98474.50;5006116;28;20635;-76
2023/04/12 06:53:06;;;;;;;9.37;2.30;;;;;;;7.41;100.00;98383.47;5022222;28;20030;-76
2023/04/12 06:55:31;;;;;;;8.93;2.23;;;;;;;7.50;100.00;98504.41;5018677;28;20388;-73
2023/04/12 06:57:56;;;;;;;8.97;2.33;;;;;;;7.88;100.00;98535.81;5004322;28;20034;-76
2023/04/12 07:00:22;;;;;;;9.83;2.53;;;;;;;7.76;100.00;98463.06;5004965;28;20079;-75
2023/04/12 07:02:47;;;;;;;4.03;1.83;;;;;;;7.53;100.00;98426.19;5005129;28;20033;-73
2023/04/12 07:05:13;;;;;;;4.13;1.40;;;;;;;7.53;100.00;98378.41;5005331;28;20049;-74
2023/04/12 07:07:38;;;;;;;8.27;2.42;;;;;;;7.75;100.00;98426.88;5021863;28;20037;-75
2023/04/12 07:10:04;;;;;;;7.83;1.87;;;;;;;7.81;100.00;98394.19;5005118;28;20064;-76
2023/04/12 07:12:30;;;;;;;4.30;1.42;;;;;;;8.11;100.00;98425.72;5022502;28;20030;-77
2023/04/12 07:14:55;;;;;;;3.70;1.80;;;;;;;7.94;100.00;98210.91;5024434;28;20522;-75
2023/04/12 07:17:21;;;;;;;6.87;2.40;;;;;;;7.89;100.00;98154.91;5006883;28;20088;-76
2023/04/12 07:19:47;;;;;;;6.15;1.65;;;;;;;7.93;100.00;98185.34;5021915;28;20506;-75
2023/04/12 07:22:13;;;;;;;;;;;;;;;7.96;100.00;98131.81;5005630;28;20037;-75
2023/04/12 07:24:38;;;;;;;4.78;1.70;;;;;;;8.07;100.00;98134.81;5025346;28;19917;-72
2023/04/12 07:27:03;;;;;;;3.63;1.57;;;;;;;8.47;100.00;98257.00;5025717;28;20030;-75
2023/04/12 07:29:29;;;;;;;4.67;1.87;;;;;;;8.36;100.00;98083.78;5009230;28;20523;-76
2023/04/12 07:31:54;;;;;;;7.07;2.40;;;;;;;8.50;100.00;98132.44;5010218;28;20395;-76
2023/04/12 07:34:19;;;;;;;5.93;1.47;;;;;;;8.62;100.00;98066.88;5018185;28;20034;-77
2023/04/12 07:36:45;;;;;;;5.80;2.00;;;;;;;8.85;100.00;98086.78;5012712;28;20034;-75
2023/04/12 07:39:11;;;;;;;7.50;2.03;;;;;;;9.08;100.00;98027.63;5025351;28;20030;-77
2023/04/12 07:41:37;;;;;;;7.60;1.73;;;;;;;8.84;100.00;97766.69;5022715;28;20104;-77
2023/04/12 07:44:03;;;;;;;3.33;1.60;;;;;;;8.91;100.00;97827.81;5008350;28;20038;-74
2023/04/12 07:46:29;;;;;;;2.40;1.30;;;;;;;9.21;99.71;97814.53;5006237;28;20495;-75
2023/04/12 07:48:55;;;;;;;3.00;1.30;;;;;;;9.27;98.44;97800.34;5008725;28;20097;-77
2023/04/12 07:51:20;;;;;;;3.50;1.27;;;;;;;9.17;97.17;97704.22;5023186;28;20038;-75
2023/04/12 07:53:47;;;;;;;6.77;1.80;;;;;;;9.33;96.21;97747.22;5005694;28;20726;-77
2023/04/12 07:56:13;;;;;;;5.10;1.30;;;;;;;9.45;95.97;97772.00;5008880;28;20442;-75
2023/04/12 07:58:38;;;;;;;8.23;1.60;;;;;;;9.37;93.03;97522.09;5024543;28;20125;-74
2023/04/12 08:01:04;;;;;;;6.13;2.10;;;;;;;9.58;91.89;97528.66;5009442;28;20110;-75
2023/04/12 08:03:30;;;;;;;5.97;2.55;;;;;;;9.29;89.96;97287.13;5008476;28;20125;-76
2023/04/12 08:05:55;;;;;;;9.30;1.60;;;;;;;9.90;90.76;97616.94;5008584;28;20124;-76
2023/04/12 08:08:21;;;;;;;7.63;2.03;;;;;;;9.46;88.45;97323.63;5008521;28;20034;-77
2023/04/12 08:10:47;;;;;;;6.35;1.40;;;;;;;9.53;88.06;97385.56;5025475;28;20038;-77
2023/04/12 08:13:13;;;;;;;5.28;1.55;;;;;;;10.09;86.68;97405.19;5001795;28;20014;-77
2023/04/12 08:15:38;;;;;;;8.75;1.65;;;;;;;10.48;85.35;97389.31;5025297;28;20030;-73
2023/04/12 08:18:04;;;;;;;9.00;1.30;;;;;;;10.57;85.70;97489.19;5016220;28;20477;-77
2023/04/12 08:20:30;;;;;;;4.50;1.85;;;;;;;10.15;83.28;97136.84;5024880;28;20041;-76
2023/04/12 08:22:56;;;;;;;10.65;1.50;;;;;;;9.99;83.16;97172.34;5008812;28;20033;-77
2023/04/12 08:25:21;;;;;;;7.18;1.75;;;;;;;9.50;82.47;96957.31;5029863;28;20040;-77
2023/04/12 08:27:48;;;;;;;3.97;1.63;;;;;;;9.64;84.19;97323.41;5024741;28;20124;-75
2023/04/12 08:30:14;;;;;;;4.75;1.30;;;;;;;10.18;83.90;97442.91;5024641;28;20506;-75
2023/04/12 08:32:40;;;;;;;4.97;1.85;;;;;;;10.08;82.90;97328.13;5024662;28;20038;-76
2023/04/12 08:35:06;;;;;;;;;;;;;;;10.03;82.07;97243.56;5007712;28;20049;-77
2023/04/12 08:37:32;;;;;;;3.13;1.95;;;;;;;9.80;81.79;97203.81;5024780;28;19913;-77
2023/04/12 08:39:59;;;;;;;3.13;1.38;;;;;;;10.26;81.84;97407.06;5023131;28;20758;-75
2023/04/12 08:42:59;;;;;;;4.65;1.55;;;;;;;10.00;80.39;97142.81;5008152;28;20041;-77
2023/04/12 08:45:34;;;;;;;4.35;1.30;;;;;;;10.31;80.47;97325.31;5027218;28;20053;-76
2023/04/12 08:48:02;;;;;;;3.30;1.40;;;;;;;10.64;80.07;97387.69;5008445;28;20040;-77
2023/04/12 08:50:28;;;;;;;5.45;1.58;;;;;;;10.41;79.48;97274.00;5021502;28;20033;-76
2023/04/12 08:52:54;;;;;;;7.53;1.80;;;;;;;10.77;80.15;97490.59;5005914;28;20026;-75
2023/04/12 08:55:20;;;;;;;;;;;;;;;10.92;79.26;97442.78;5008317;28;20042;-77
2023/04/12 08:57:47;;;;;;;4.05;1.73;;;;;;;10.44;77.80;97150.84;5021206;28;19920;-76
2023/04/12 09:00:13;;;;;;;12.38;2.03;;;;;;;9.89;77.21;97042.47;5023815;28;20380;-76
2023/04/12 09:02:41;;;;;;;6.07;1.55;;;;;;;10.39;79.11;97481.44;5024377;28;20041;-77
2023/04/12 09:05:08;;;;;;;8.65;2.30;;;;;;;10.62;77.99;97396.97;4999910;28;20042;-78
2023/04/12 09:07:34;;;;;;;5.82;1.40;;;;;;;10.81;77.68;97509.59;5024089;28;20041;-75
2023/04/12 09:10:00;;;;;;;5.03;1.77;;;;;;;10.96;76.45;97379.84;5009353;28;20479;-76
2023/04/12 09:12:26;;;;;;;7.35;1.40;;;;;;;10.43;75.26;97133.22;5031684;28;20033;-73
2023/04/12 09:15:08;;;;;;;6.28;2.08;;;;;;;10.52;73.96;97010.91;5024899;28;20113;-77
2023/04/12 09:17:37;;;;;;;4.75;1.52;;;;;;;11.07;74.56;97347.94;5015293;28;20068;-75
2023/04/12 09:20:15;;;;;;;3.75;1.17;;;;;;;10.89;73.48;97147.06;5009426;28;20025;-74
2023/04/12 09:22:44;;;;;;;4.78;1.55;;;;;;;10.91;74.02;97217.00;5024756;28;20034;-78
2023/04/12 09:25:10;;;;;;;6.63;1.90;;;;;;;10.73;73.66;97198.66;5002072;28;20384;-77
2023/04/12 09:27:49;;;;;;;9.75;2.08;;;;;;;10.56;73.96;97204.06;5009594;28;20042;-77
2023/04/12 09:30:16;;;;;;;6.18;1.55;;;;;;;10.67;74.39;97315.16;5027315;28;20034;-77
2023/04/12 09:32:42;;;;;;;7.22;2.30;;;;;;;10.57;74.17;97262.47;5000525;28;20081;-76
2023/04/12 09:35:08;;;;;;;3.95;1.55;;;;;;;10.55;75.15;97405.16;5023215;28;20958;-76
2023/04/12 09:37:33;;;;;;;6.05;1.88;;;;;;;10.34;74.01;97201.38;4996878;28;20093;-74
2023/04/12 09:40:01;;;;;;;6.17;1.30;;;;;;;10.37;73.85;97208.88;5002781;28;20038;-76
2023/04/12 09:42:27;;;;;;;4.57;1.40;;;;;;;10.68;74.10;97350.66;5013643;28;20041;-76
2023/04/12 09:44:56;;;;;;;3.45;1.40;;;;;;;10.50;74.17;97303.72;5018440;28;20022;-76
2023/04/12 09:47:35;;;;;;;6.45;1.50;;;;;;;10.32;74.50;97315.47;5026577;28;20053;-75
2023/04/12 09:50:03;;;;;;;4.60;1.10;;;;;;;10.42;74.64;97408.97;5005438;28;20033;-77
2023/04/12 09:52:35;;;;;;;6.07;1.55;;;;;;;10.43;74.22;97365.22;5025310;28;20038;-73
2023/04/12 09:55:02;;;;;;;6.00;2.10;;;;;;;10.23;73.91;97261.75;5007585;28;20503;-76
2023/04/12 09:57:28;;;;;;;5.50;1.40;;;;;;;10.18;73.72;97255.50;5023611;28;20523;-76
2023/04/12 09:59:59;;;;;;;2.90;1.30;;;;;;;10.17;73.92;97308.03;5028524;28;20041;-74
2023/04/12 10:02:27;;;;;;;4.78;1.88;;;;;;;10.30;74.16;97365.56;5005780;28;20452;-76
2023/04/12 10:04:53;;;;;;;5.03;2.00;;;;;;;10.22;72.93;97203.31;5020364;28;20130;-76
2023/04/12 10:07:18;;;;;;;;;;;;;;;10.21;72.83;97186.53;5024710;28;20372;-73
2023/04/12 10:09:44;;;;;;;3.05;1.42;;;;;;;10.32;72.71;97256.81;5021582;28;19916;-77
2023/04/12 10:12:10;;;;;;;3.33;1.48;;;;;;;10.25;72.23;97176.16;5006677;28;20467;-75
2023/04/12 10:14:36;;;;;;;4.43;1.60;;;;;;;10.22;72.00;97144.69;5022172;28;20095;-77
2023/04/12 10:17:03;;;;;;;6.57;1.63;;;;;;;10.36;72.76;97319.25;5022257;28;20094;-77
2023/04/12 10:19:32;;;;;;;4.75;1.80;;;;;;;10.50;73.06;97391.72;5020614;28;20550;-76
2023/04/12 10:21:58;;;;;;;3.17;1.20;;;;;;;10.75;71.68;97279.25;5009693;28;20022;-78
2023/04/12 10:24:25;;;;;;;;;;;;;;;10.95;71.82;97324.03;5024151;28;20070;-77
2023/04/12 10:26:52;;;;;;;8.50;1.60;;;;;;;10.93;71.01;97230.06;5015422;28;19913;-77
2023/04/12 10:29:29;;;;;;;4.13;1.35;;;;;;;11.00;70.87;97252.03;5024836;28;20033;-74
2023/04/12 10:32:20;;;;;;;6.28;1.65;;;;;;;11.02;69.76;97078.28;5018679;28;20030;-78
2023/04/12 10:34:52;;;;;;;5.43;1.60;;;;;;;10.86;70.00;97088.03;5018396;28;20140;-76
2023/04/12 10:37:17;;;;;;;5.05;1.48;;;;;;;10.91;70.29;97184.97;5021679;28;20762;-76
2023/04/12 10:39:46;;;;;;;10.60;1.60;;;;;;;10.97;70.92;97274.69;5028240;28;20036;-76
2023/04/12 10:42:15;;;;;;;5.57;1.63;;;;;;;10.79;70.05;97098.91;5019139;28;20030;-76
2023/04/12 10:44:40;;;;;;;6.38;1.55;;;;;;;10.74;70.67;97144.22;5020754;28;20164;-78
2023/04/12 10:47:05;;;;;;;5.50;1.57;;;;;;;10.69;70.52;97152.97;5021924;28;20115;-77
2023/04/12 10:49:31;;;;;;;4.80;1.40;;;;;;;10.55;70.13;97048.53;5021539;28;20081;-78
2023/04/12 10:52:02;;;;;;;7.07;1.43;;;;;;;10.57;70.72;97157.66;5005092;28;20085;-77
2023/04/12 10:54:28;;;;;;;4.43;1.40;;;;;;;10.68;71.49;97311.44;5021021;28;20161;-75
2023/04/12 10:56:53;;;;;;;4.57;1.65;;;;;;;10.51;71.08;97204.81;5021115;28;20515;-75
2023/04/12 10:59:51;;;;;;;3.72;1.80;;;;;;;10.56;71.49;97306.22;5021391;28;20100;-77
2023/04/12 11:02:16;;;;;;;4.63;1.40;;;;;;;10.51;72.09;97340.81;5014016;28;20550;-77
2023/04/12 11:05:07;;;;;;;7.78;2.03;;;;;;;10.53;72.13;97376.03;5022621;28;20030;-74
2023/04/12 11:07:52;;;;;;;9.73;1.70;;;;;;;10.47;72.63;97414.38;5004883;28;20141;-75
2023/04/12 11:10:37;;;;;;;4.43;1.63;;;;;;;10.46;73.22;97502.63;5006564;28;20041;-78
2023/04/12 11:13:06;;;;;;;;;;;;;;;10.42;73.12;97469.47;5024525;28;20377;-76
2023/04/12 11:15:33;;;;;;;5.75;1.63;;;;;;;10.28;73.50;97490.28;5023320;28;20295;-75
2023/04/12 11:17:59;;;;;;;6.03;1.80;;;;;;;10.35;73.84;97576.31;5003707;28;20051;-75
2023/04/12 11:20:26;;;;;;;6.68;1.52;;;;;;;10.30;74.48;97616.19;5007647;28;20515;-77
2023/04/12 11:22:52;;;;;;;8.27;2.25;;;;;;;10.25;74.40;97613.41;5009400;28;20168;-76
2023/04/12 11:25:18;;;;;;;6.97;2.08;;;;;;;10.26;74.01;97577.69;5020878;28;20033;-77
2023/04/12 11:27:51;;;;;;;7.03;1.83;;;;;;;10.53;75.14;97813.50;5026603;28;20033;-76
2023/04/12 11:30:18;;;;;;;11.45;2.00;;;;;;;10.53;74.88;97788.69;5027488;28;20104;-77
2023/04/12 11:32:44;;;;;;;5.50;2.42;;;;;;;10.56;75.13;97770.38;5003152;28;20058;-77